createdAt,value
2023-01-22T00:00:35.402Z,1.17
2023-01-22T00:03:02.129Z,1.18
2023-01-22T00:05:28.765Z,1.15
2023-01-22T00:07:55.872Z,1.22
2023-01-22T00:10:22.482Z,1.31
2023-01-22T00:12:49.058Z,1.39
2023-01-22T00:15:16.238Z,1.03
2023-01-22T00:17:42.821Z,1.08
2023-01-22T00:20:11.519Z,1.03
2023-01-22T00:22:38.047Z,1.13
2023-01-22T00:25:05.395Z,1.05
2023-01-22T00:27:31.966Z,1.10
2023-01-22T00:29:58.579Z,1.21
2023-01-22T00:32:25.316Z,1.19
2023-01-22T00:34:54.926Z,1.22
2023-01-22T00:37:21.522Z,1.15
2023-01-22T00:39:48.087Z,1.20
2023-01-22T00:42:14.672Z,1.17
2023-01-22T00:44:41.270Z,1.15
2023-01-22T00:47:07.925Z,1.23
2023-01-22T00:49:36.547Z,1.36
2023-01-22T00:52:03.195Z,1.34
2023-01-22T00:54:30.297Z,1.28
2023-01-22T00:56:56.987Z,1.34
2023-01-22T00:59:24.151Z,1.42
2023-01-22T01:01:50.869Z,1.32
2023-01-22T01:04:17.600Z,1.55
2023-01-22T01:06:44.304Z,1.25
2023-01-22T01:09:13.150Z,1.27
2023-01-22T01:11:39.751Z,1.49
2023-01-22T01:14:06.521Z,1.03
2023-01-22T01:16:33.652Z,1.11
2023-01-22T01:19:11.862Z,1.35
2023-01-22T01:21:38.979Z,1.10
2023-01-22T01:24:05.764Z,1.49
2023-01-22T01:26:33.610Z,1.33
2023-01-22T01:29:04.442Z,1.39
2023-01-22T01:31:31.218Z,1.57
2023-01-22T01:33:58.456Z,1.62
2023-01-22T01:39:12.891Z,1.35
2023-01-22T01:41:39.518Z,1.51
2023-01-22T01:44:18.062Z,1.69
2023-01-22T01:46:55.870Z,1.99
2023-01-22T01:49:32.260Z,1.40
2023-01-22T01:52:03.097Z,1.48
2023-01-22T01:54:30.928Z,1.44
2023-01-22T01:57:04.048Z,1.39
2023-01-22T01:59:33.527Z,1.44
2023-01-22T02:02:02.512Z,1.52
2023-01-22T02:04:29.609Z,1.76
2023-01-22T02:06:56.330Z,1.48
2023-01-22T02:09:23.076Z,1.72
2023-01-22T02:11:51.458Z,1.39
2023-01-22T02:14:23.201Z,1.27
2023-01-22T02:17:22.488Z,1.25
2023-01-22T02:19:51.151Z,1.47
2023-01-22T02:22:20.605Z,1.53
2023-01-22T02:24:47.594Z,1.51
2023-01-22T02:27:14.227Z,1.33
2023-01-22T02:29:41.311Z,1.50
2023-01-22T02:32:10.273Z,1.54
2023-01-22T02:34:37.748Z,1.54
2023-01-22T02:37:04.703Z,1.60
2023-01-22T02:39:32.075Z,1.59
2023-01-22T02:42:02.214Z,1.29
2023-01-22T02:44:29.398Z,1.57
2023-01-22T02:46:56.067Z,1.41
2023-01-22T02:49:22.767Z,1.53
2023-01-22T02:51:50.299Z,1.27
2023-01-22T02:54:18.447Z,1.23
2023-01-22T02:56:45.072Z,1.39
2023-01-22T02:59:11.783Z,1.33
2023-01-22T03:01:38.403Z,1.39
2023-01-22T03:04:12.436Z,1.55
2023-01-22T03:06:44.081Z,1.43
2023-01-22T03:09:12.867Z,1.29
2023-01-22T03:11:41.247Z,1.25
2023-01-22T03:14:31.587Z,1.48
2023-01-22T03:17:17.969Z,1.26
2023-01-22T03:20:03.540Z,1.36
2023-01-22T03:22:31.362Z,1.31
2023-01-22T03:25:00.388Z,1.30
2023-01-22T03:27:28.089Z,1.57
2023-01-22T03:29:55.257Z,1.78
2023-01-22T03:32:22.799Z,1.59
2023-01-22T03:34:51.128Z,1.41
2023-01-22T03:37:18.398Z,1.52
2023-01-22T03:39:48.203Z,1.34
2023-01-22T03:42:25.478Z,1.38
2023-01-22T03:44:52.191Z,1.55
2023-01-22T03:47:19.881Z,1.75
2023-01-22T03:49:46.536Z,1.50
2023-01-22T03:52:13.370Z,1.39
2023-01-22T03:54:40.251Z,1.64
2023-01-22T03:57:08.535Z,1.69
2023-01-22T03:59:38.135Z,1.56
2023-01-22T04:02:04.848Z,1.74
2023-01-22T04:04:38.227Z,1.50
2023-01-22T04:07:05.059Z,1.67
2023-01-22T04:09:32.482Z,1.48
2023-01-22T04:11:59.342Z,1.66
2023-01-22T04:14:27.019Z,1.53
2023-01-22T04:16:59.372Z,1.72
2023-01-22T04:20:01.645Z,1.60
2023-01-22T04:22:41.334Z,1.62
2023-01-22T04:25:12.273Z,1.47
2023-01-22T04:27:38.904Z,1.61
2023-01-22T04:30:07.459Z,1.64
2023-01-22T04:32:34.690Z,1.80
2023-01-22T04:35:35.513Z,1.62
2023-01-22T04:38:02.817Z,1.76
2023-01-22T04:40:29.506Z,1.56
2023-01-22T04:42:56.213Z,2.02
2023-01-22T04:45:23.567Z,1.86
2023-01-22T04:47:50.212Z,1.85
2023-01-22T04:50:22.813Z,1.62
2023-01-22T04:52:54.577Z,1.58
2023-01-22T04:55:21.723Z,1.56
2023-01-22T04:57:58.605Z,1.59
2023-01-22T05:00:27.656Z,1.71
2023-01-22T05:02:58.861Z,1.49
2023-01-22T05:05:28.422Z,1.58
2023-01-22T05:07:55.725Z,1.37
2023-01-22T05:10:23.268Z,1.39
2023-01-22T05:12:50.513Z,1.69
2023-01-22T05:15:24.332Z,1.63
2023-01-22T05:17:53.660Z,1.61
2023-01-22T05:20:21.119Z,1.49
2023-01-22T05:22:47.934Z,1.37
2023-01-22T05:25:18.053Z,1.62
2023-01-22T05:27:45.265Z,1.66
2023-01-22T05:30:20.679Z,1.95
2023-01-22T05:33:13.249Z,1.93
2023-01-22T05:35:40.745Z,1.64
2023-01-22T05:38:07.516Z,1.93
2023-01-22T05:40:34.145Z,1.88
2023-01-22T05:43:03.039Z,1.61
2023-01-22T05:45:30.191Z,1.59
2023-01-22T05:48:17.157Z,1.57
2023-01-22T05:50:54.093Z,1.76
2023-01-22T05:53:20.694Z,1.64
2023-01-22T05:55:47.288Z,1.65
2023-01-22T05:58:14.100Z,1.21
2023-01-22T06:00:47.111Z,1.50
2023-01-22T06:03:23.470Z,1.52
2023-01-22T06:06:03.183Z,1.30
2023-01-22T06:08:30.237Z,1.56
2023-01-22T06:11:01.384Z,1.56
2023-01-22T06:13:29.622Z,1.33
2023-01-22T06:16:01.636Z,1.25
2023-01-22T06:18:51.023Z,1.43
2023-01-22T06:21:17.753Z,1.53
2023-01-22T06:23:45.025Z,1.50
2023-01-22T06:26:13.307Z,1.53
2023-01-22T06:28:41.247Z,1.44
2023-01-22T06:31:08.070Z,1.83
2023-01-22T06:33:41.225Z,1.56
2023-01-22T06:36:08.477Z,1.39
2023-01-22T06:38:37.319Z,1.26
2023-01-22T06:41:05.839Z,1.19
2023-01-22T06:43:33.150Z,1.34
2023-01-22T06:45:59.885Z,1.35
2023-01-22T06:48:50.094Z,1.40
2023-01-22T06:51:16.990Z,1.40
2023-01-22T06:53:43.891Z,1.50
2023-01-22T06:56:11.565Z,1.58
2023-01-22T06:58:39.482Z,1.35
2023-01-22T07:01:06.187Z,1.39
2023-01-22T07:03:33.271Z,1.52
2023-01-22T07:06:02.405Z,1.42
2023-01-22T07:08:30.927Z,1.45
2023-01-22T07:10:58.246Z,1.35
2023-01-22T07:13:24.917Z,1.52
2023-01-22T07:15:51.612Z,1.57
2023-01-22T07:18:20.097Z,1.54
2023-01-22T07:20:47.453Z,1.64
2023-01-22T07:23:14.133Z,1.36
2023-01-22T07:25:40.843Z,1.65
2023-01-22T07:28:07.905Z,1.57
2023-01-22T07:30:34.581Z,1.62
2023-01-22T07:33:02.289Z,1.28
2023-01-22T07:35:30.051Z,1.56
2023-01-22T07:37:59.403Z,1.46
2023-01-22T07:40:26.587Z,1.28
2023-01-22T07:42:54.163Z,1.46
2023-01-22T07:45:24.725Z,1.42
2023-01-22T07:47:54.468Z,1.41
2023-01-22T07:50:25.826Z,1.51
2023-01-22T07:52:52.626Z,1.72
2023-01-22T07:55:19.790Z,1.76
2023-01-22T07:57:46.651Z,1.91
2023-01-22T08:00:17.140Z,1.80
2023-01-22T08:02:43.986Z,1.86
2023-01-22T08:05:13.958Z,1.76
2023-01-22T08:07:40.551Z,1.74
2023-01-22T08:10:08.738Z,1.73
2023-01-22T08:12:38.482Z,1.82
2023-01-22T08:15:05.702Z,1.54
2023-01-22T08:17:32.342Z,1.36
2023-01-22T08:19:58.926Z,1.70
2023-01-22T08:22:25.705Z,1.71
2023-01-22T08:24:54.107Z,1.61
2023-01-22T08:27:22.716Z,1.53
2023-01-22T08:29:49.939Z,1.60
2023-01-22T08:32:18.242Z,1.65
2023-01-22T08:34:44.957Z,1.66
2023-01-22T08:37:11.745Z,1.65
2023-01-22T08:39:38.404Z,1.71
2023-01-22T08:42:05.009Z,1.44
2023-01-22T08:44:31.596Z,1.73
2023-01-22T08:46:58.470Z,1.54
2023-01-22T08:49:26.444Z,1.42
2023-01-22T08:51:53.534Z,1.62
2023-01-22T08:54:20.208Z,1.80
2023-01-22T08:56:48.004Z,1.74
2023-01-22T08:59:15.751Z,1.49
2023-01-22T09:01:42.578Z,1.53
2023-01-22T09:04:10.498Z,1.77
2023-01-22T09:06:38.324Z,1.75
2023-01-22T09:09:06.234Z,1.59
2023-01-22T09:11:33.556Z,1.75
2023-01-22T09:14:00.271Z,1.80
2023-01-22T09:16:27.607Z,1.79
2023-01-22T09:18:54.586Z,1.66
2023-01-22T09:21:21.296Z,1.70
2023-01-22T09:23:47.927Z,1.86
2023-01-22T09:26:14.746Z,1.48
2023-01-22T09:28:41.425Z,1.71
2023-01-22T09:31:11.965Z,1.86
2023-01-22T09:33:38.812Z,1.98
2023-01-22T09:36:14.119Z,2.29
2023-01-22T09:38:40.850Z,2.35
2023-01-22T09:41:18.188Z,2.32
2023-01-22T09:43:50.168Z,1.99
2023-01-22T09:46:23.562Z,2.01
2023-01-22T09:48:56.142Z,1.82
2023-01-22T09:51:23.003Z,1.92
2023-01-22T09:53:56.319Z,1.88
2023-01-22T09:56:32.674Z,2.13
2023-01-22T09:59:01.838Z,1.69
2023-01-22T10:01:29.732Z,1.62
2023-01-22T10:04:21.398Z,1.70
2023-01-22T10:06:50.072Z,1.66
2023-01-22T10:09:20.346Z,1.94
2023-01-22T10:11:52.289Z,1.95
2023-01-22T10:14:22.763Z,2.02
2023-01-22T10:16:49.454Z,1.99
2023-01-22T10:19:23.749Z,1.93
2023-01-22T10:22:02.424Z,2.05
2023-01-22T10:24:30.162Z,1.90
2023-01-22T10:26:58.941Z,2.11
2023-01-22T10:29:28.070Z,2.08
2023-01-22T10:31:58.192Z,2.04
2023-01-22T10:34:32.579Z,2.13
2023-01-22T10:37:04.645Z,2.32
2023-01-22T10:39:44.524Z,2.36
2023-01-22T10:42:20.082Z,2.41
2023-01-22T10:44:47.405Z,2.33
2023-01-22T10:47:27.312Z,2.21
2023-01-22T10:50:06.723Z,2.18
2023-01-22T10:52:38.562Z,1.94
2023-01-22T10:55:07.441Z,2.23
2023-01-22T10:57:37.721Z,2.35
2023-01-22T11:00:23.416Z,2.25
2023-01-22T11:02:51.109Z,2.19
2023-01-22T11:05:22.103Z,2.25
2023-01-22T11:07:57.579Z,2.29
2023-01-22T11:10:35.410Z,2.35
2023-01-22T11:13:12.632Z,2.34
2023-01-22T11:15:53.794Z,2.30
2023-01-22T11:18:32.000Z,2.24
2023-01-22T11:21:00.829Z,2.42
2023-01-22T11:23:55.699Z,2.11
2023-01-22T11:26:34.634Z,2.19
2023-01-22T11:29:19.712Z,2.47
2023-01-22T11:32:17.698Z,2.20
2023-01-22T11:35:01.122Z,2.08
2023-01-22T11:37:43.045Z,2.18
2023-01-22T11:40:25.016Z,2.16
2023-01-22T11:43:00.796Z,2.40
2023-01-22T11:45:37.494Z,2.61
2023-01-22T11:48:10.387Z,2.25
2023-01-22T11:51:03.518Z,2.49
2023-01-22T11:54:05.668Z,2.82
2023-01-22T11:56:46.016Z,2.69
2023-01-22T11:59:25.033Z,2.69
2023-01-22T12:02:06.736Z,2.53
2023-01-22T12:04:51.401Z,2.39
2023-01-22T12:07:45.731Z,2.60
2023-01-22T12:10:33.659Z,2.58
2023-01-22T12:13:26.827Z,2.67
2023-01-22T12:16:31.949Z,2.68
2023-01-22T12:19:04.704Z,2.28
2023-01-22T12:21:46.530Z,2.25
2023-01-22T12:24:25.956Z,2.27
2023-01-22T12:27:05.744Z,2.30
2023-01-22T12:29:54.987Z,2.29
2023-01-22T12:32:24.151Z,2.41
2023-01-22T12:34:53.778Z,2.41
2023-01-22T12:37:25.427Z,2.46
2023-01-22T12:39:58.150Z,2.36
2023-01-22T12:42:35.766Z,2.53
2023-01-22T12:45:17.744Z,2.66
2023-01-22T12:47:59.299Z,2.49
2023-01-22T12:50:27.180Z,2.28
2023-01-22T12:53:02.295Z,2.27
2023-01-22T12:55:29.459Z,2.29
2023-01-22T12:57:56.895Z,2.39
2023-01-22T13:00:31.621Z,2.17
2023-01-22T13:02:58.575Z,2.13
2023-01-22T13:05:31.267Z,2.13
2023-01-22T13:08:02.719Z,2.24
2023-01-22T13:10:31.434Z,2.43
2023-01-22T13:13:20.176Z,2.71
2023-01-22T13:15:54.991Z,2.70
2023-01-22T13:18:24.481Z,2.66
2023-01-22T13:21:08.224Z,2.60
2023-01-22T13:23:40.243Z,2.53
2023-01-22T13:26:07.116Z,2.78
2023-01-22T13:28:34.254Z,2.39
2023-01-22T13:31:04.233Z,2.61
2023-01-22T13:33:31.546Z,2.53
2023-01-22T13:35:58.658Z,2.45
2023-01-22T13:38:28.537Z,2.47
2023-01-22T13:41:04.909Z,2.53
2023-01-22T13:43:34.749Z,2.39
2023-01-22T13:46:01.457Z,2.18
2023-01-22T13:48:28.674Z,2.24
2023-01-22T13:50:57.198Z,2.46
2023-01-22T13:53:33.074Z,2.22
2023-01-22T13:56:00.233Z,2.53
2023-01-22T13:58:48.567Z,2.52
2023-01-22T14:01:30.668Z,2.73
2023-01-22T14:04:23.810Z,2.63
2023-01-22T14:06:50.599Z,2.53
2023-01-22T14:09:35.688Z,2.73
2023-01-22T14:12:15.242Z,2.62
2023-01-22T14:14:43.354Z,2.61
2023-01-22T14:17:34.259Z,2.76
2023-01-22T14:20:02.584Z,2.94
2023-01-22T14:22:29.222Z,2.71
2023-01-22T14:24:56.680Z,2.50
2023-01-22T14:27:27.780Z,2.63
2023-01-22T14:29:55.329Z,2.64
2023-01-22T14:32:23.770Z,2.63
2023-01-22T14:34:50.336Z,2.33
2023-01-22T14:37:18.892Z,2.60
2023-01-22T14:39:45.524Z,2.56
2023-01-22T14:42:12.327Z,2.56
2023-01-22T14:44:39.009Z,2.58
2023-01-22T14:47:05.658Z,2.29
2023-01-22T14:49:32.614Z,2.55
2023-01-22T14:51:59.264Z,2.56
2023-01-22T14:54:26.069Z,2.79
2023-01-22T14:56:52.878Z,2.59
2023-01-22T14:59:20.924Z,3.00
2023-01-22T15:01:47.824Z,2.76
2023-01-22T15:04:14.544Z,2.58
2023-01-22T15:06:41.168Z,2.53
2023-01-22T15:09:07.731Z,2.92
2023-01-22T15:11:34.436Z,2.92
2023-01-22T15:14:01.142Z,2.58
2023-01-22T15:16:27.822Z,2.63
2023-01-22T15:18:56.480Z,2.71
2023-01-22T15:21:23.466Z,2.66
2023-01-22T15:23:50.683Z,2.67
2023-01-22T15:26:27.146Z,2.82
2023-01-22T15:28:58.268Z,2.99
2023-01-22T15:31:24.936Z,2.83
2023-01-22T15:33:51.702Z,2.77
2023-01-22T15:36:19.079Z,2.73
2023-01-22T15:38:45.719Z,2.95
2023-01-22T15:41:18.526Z,3.03
2023-01-22T15:43:46.274Z,2.79
2023-01-22T15:46:12.931Z,2.66
2023-01-22T15:48:39.774Z,3.02
2023-01-22T15:51:10.963Z,2.77
2023-01-22T15:53:37.655Z,2.86
2023-01-22T15:56:04.575Z,2.71
2023-01-22T15:58:32.449Z,2.71
2023-01-22T16:00:59.870Z,2.84
2023-01-22T16:03:26.809Z,2.77
2023-01-22T16:05:53.541Z,2.64
2023-01-22T16:08:20.126Z,2.79
2023-01-22T16:10:46.751Z,2.69
2023-01-22T16:13:13.308Z,2.78
2023-01-22T16:15:40.045Z,2.74
2023-01-22T16:18:06.842Z,2.82
2023-01-22T16:20:33.824Z,2.84
2023-01-22T16:23:00.566Z,2.65
2023-01-22T16:25:27.126Z,2.93
2023-01-22T16:27:53.698Z,3.10
2023-01-22T16:30:20.644Z,2.96
2023-01-22T16:32:47.378Z,3.00
2023-01-22T16:35:14.572Z,2.97
2023-01-22T16:37:44.278Z,3.01
2023-01-22T16:40:12.057Z,3.33
2023-01-22T16:42:38.844Z,3.40
2023-01-22T16:45:05.919Z,3.24
2023-01-22T16:47:32.530Z,3.17
2023-01-22T16:49:59.163Z,2.92
2023-01-22T16:52:25.767Z,2.92
2023-01-22T16:54:52.500Z,3.03
2023-01-22T16:57:20.209Z,3.13
2023-01-22T16:59:47.010Z,3.20
2023-01-22T17:02:15.754Z,3.26
2023-01-22T17:04:42.553Z,3.17
2023-01-22T17:07:13.556Z,3.39
2023-01-22T17:09:47.598Z,3.31
2023-01-22T17:12:14.461Z,3.28
2023-01-22T17:14:41.256Z,3.29
2023-01-22T17:17:12.242Z,3.31
2023-01-22T17:19:39.017Z,3.17
2023-01-22T17:22:05.631Z,3.12
2023-01-22T17:24:32.236Z,3.21
2023-01-22T17:27:02.215Z,3.03
2023-01-22T17:29:31.874Z,3.05
2023-01-22T17:31:58.529Z,3.09
2023-01-22T17:34:25.178Z,3.29
2023-01-22T17:36:51.843Z,3.10
2023-01-22T17:39:20.628Z,3.03
2023-01-22T17:41:47.886Z,3.14
2023-01-22T17:44:14.788Z,3.00
2023-01-22T17:46:41.751Z,2.97
2023-01-22T17:49:11.174Z,2.87
2023-01-22T17:51:38.665Z,2.95
2023-01-22T17:54:06.481Z,2.87
2023-01-22T17:56:36.580Z,2.81
2023-01-22T17:59:06.221Z,2.82
2023-01-22T18:01:35.783Z,3.00
2023-01-22T18:04:05.556Z,2.91
2023-01-22T18:06:32.410Z,3.04
2023-01-22T18:09:00.750Z,2.85
2023-01-22T18:11:29.695Z,2.83
2023-01-22T18:14:02.495Z,2.78
2023-01-22T18:16:31.655Z,3.11
2023-01-22T18:19:01.629Z,3.23
2023-01-22T18:21:29.041Z,3.26
2023-01-22T18:23:56.301Z,3.40
2023-01-22T18:26:23.892Z,3.37
2023-01-22T18:28:51.870Z,3.12
2023-01-22T18:31:22.346Z,3.17
2023-01-22T18:33:49.501Z,3.14
2023-01-22T18:36:19.381Z,3.10
2023-01-22T18:38:46.847Z,3.03
2023-01-22T18:41:16.519Z,3.12
2023-01-22T18:43:46.404Z,3.13
2023-01-22T18:46:13.709Z,3.38
2023-01-22T18:48:41.621Z,3.33
2023-01-22T18:51:10.911Z,3.27
2023-01-22T18:53:37.742Z,3.14
2023-01-22T18:56:06.043Z,3.30
2023-01-22T18:58:36.266Z,3.37
2023-01-22T19:01:13.456Z,3.32
2023-01-22T19:03:42.235Z,3.33
2023-01-22T19:06:15.878Z,3.39
2023-01-22T19:09:14.107Z,3.61
2023-01-22T19:11:49.327Z,3.36
2023-01-22T19:14:18.682Z,3.33
2023-01-22T19:16:48.380Z,3.17
2023-01-22T19:19:15.428Z,3.11
2023-01-22T19:21:46.947Z,3.11
2023-01-22T19:24:16.281Z,3.23
2023-01-22T19:26:46.373Z,3.36
2023-01-22T19:29:17.218Z,3.52
2023-01-22T19:31:47.210Z,3.55
2023-01-22T19:34:18.488Z,3.41
2023-01-22T19:36:45.047Z,3.49
2023-01-22T19:39:13.336Z,3.35
2023-01-22T19:41:40.967Z,3.33
2023-01-22T19:44:09.271Z,3.35
2023-01-22T19:46:37.996Z,3.41
2023-01-22T19:49:05.649Z,3.33
2023-01-22T19:51:32.318Z,3.26
2023-01-22T19:54:00.460Z,3.34
2023-01-22T19:56:30.482Z,3.37
2023-01-22T19:59:05.873Z,3.19
2023-01-22T20:01:33.815Z,3.12
2023-01-22T20:04:01.091Z,3.09
2023-01-22T20:06:27.773Z,3.18
2023-01-22T20:08:56.871Z,3.05
2023-01-22T20:11:24.061Z,3.13
2023-01-22T20:13:50.706Z,3.17
2023-01-22T20:16:28.757Z,3.31
2023-01-22T20:18:57.395Z,3.40
2023-01-22T20:21:25.340Z,3.31
2023-01-22T20:23:52.019Z,3.48
2023-01-22T20:26:20.390Z,3.54
2023-01-22T20:28:47.970Z,3.62
2023-01-22T20:31:19.840Z,3.38
2023-01-22T20:33:46.709Z,3.36
2023-01-22T20:36:17.643Z,3.56
2023-01-22T20:38:46.067Z,3.49
2023-01-22T20:41:13.969Z,3.61
2023-01-22T20:43:42.962Z,3.54
2023-01-22T20:46:17.276Z,3.42
2023-01-22T20:48:44.543Z,3.32
2023-01-22T20:51:17.505Z,3.17
2023-01-22T20:53:45.929Z,3.23
2023-01-22T20:56:15.186Z,3.26
2023-01-22T20:58:42.140Z,3.44
2023-01-22T21:01:16.467Z,3.47
2023-01-22T21:03:44.022Z,3.47
2023-01-22T21:06:14.131Z,3.35
2023-01-22T21:08:42.464Z,3.34
2023-01-22T21:11:12.668Z,3.11
2023-01-22T21:13:39.944Z,3.12
2023-01-22T21:16:17.769Z,3.23
2023-01-22T21:18:46.302Z,3.08
2023-01-22T21:21:18.914Z,3.06
2023-01-22T21:23:50.299Z,2.92
2023-01-22T21:26:25.500Z,3.01
2023-01-22T21:28:58.230Z,2.94
2023-01-22T21:31:25.555Z,2.93
2023-01-22T21:34:03.532Z,3.04
2023-01-22T21:36:40.059Z,3.15
2023-01-22T21:39:12.822Z,2.94
2023-01-22T21:41:41.138Z,3.01
2023-01-22T21:44:29.487Z,3.00
2023-01-22T21:46:57.839Z,3.11
2023-01-22T21:49:24.660Z,3.28
2023-01-22T21:51:55.639Z,3.19
2023-01-22T21:54:26.652Z,3.30
2023-01-22T21:56:54.562Z,3.42
2023-01-22T21:59:21.962Z,3.51
2023-01-22T22:01:57.722Z,3.59
2023-01-22T22:04:26.920Z,3.70
2023-01-22T22:06:54.450Z,3.63
2023-01-22T22:09:24.287Z,3.45
2023-01-22T22:11:54.825Z,3.52
2023-01-22T22:14:22.091Z,3.50
2023-01-22T22:16:49.449Z,3.56
2023-01-22T22:19:17.199Z,3.46
2023-01-22T22:21:44.276Z,3.47
2023-01-22T22:24:11.680Z,3.47
2023-01-22T22:26:39.072Z,3.44
2023-01-22T22:29:07.676Z,3.22
2023-01-22T22:31:36.443Z,3.40
2023-01-22T22:34:03.712Z,3.21
2023-01-22T22:36:32.419Z,3.15
2023-01-22T22:39:00.927Z,3.09
2023-01-22T22:41:30.603Z,3.22
2023-01-22T22:43:57.525Z,3.44
2023-01-22T22:46:29.751Z,3.53
2023-01-22T22:48:59.459Z,3.58
2023-01-22T22:51:34.252Z,3.48
2023-01-22T22:54:03.727Z,3.58
2023-01-22T22:56:31.142Z,3.44
2023-01-22T22:59:00.812Z,3.53
2023-01-22T23:01:29.063Z,3.39
2023-01-22T23:03:55.852Z,3.47
2023-01-22T23:06:28.518Z,3.50
2023-01-22T23:09:09.696Z,3.33
2023-01-22T23:11:36.507Z,3.38
2023-01-22T23:14:04.025Z,3.28
2023-01-22T23:16:33.986Z,3.54
2023-01-22T23:19:03.718Z,3.48
2023-01-22T23:21:30.553Z,3.41
2023-01-22T23:23:57.275Z,3.28
2023-01-22T23:26:28.214Z,3.20
2023-01-22T23:28:57.883Z,3.18
2023-01-22T23:31:25.324Z,3.23
2023-01-22T23:33:53.338Z,3.24
2023-01-22T23:36:20.127Z,3.28
2023-01-22T23:38:46.957Z,3.32
2023-01-22T23:41:17.094Z,3.16
2023-01-22T23:43:44.356Z,3.19
2023-01-22T23:46:15.174Z,3.28
2023-01-22T23:48:42.244Z,3.13
2023-01-22T23:51:10.260Z,3.10
2023-01-22T23:53:40.051Z,3.32
2023-01-22T23:56:08.077Z,3.25
2023-01-22T23:58:35.297Z,3.17
